Terminal Aerodrome Forecast
Issued by NWS Cleveland, OH

Home | Current Version | Previous Version | Graphics & Text | Print | Product List | Glossary Off
Versions: 1 2 3 4 5 6 7 8 9 10 11 12 13 14 15 16

000
FTUS41 KCLE 301700
TAFCAK
TAF
KCAK 301731Z 3018/3118 20012G18KT P6SM FEW150 SCT250
     FM310000 21007KT P6SM SCT080 OVC100
     FM310800 23009KT 6SM -SHRA VCTS BKN035CB OVC100
     FM310900 24008KT 4SM -SHRA BR OVC020=

USA.gov is the U.S. government's official web portal to all federal, state and local government web resources and services.